Johnsonville, IL (62850)

2:30 AM CST on March 02, 2015 (GMT -0600)
Flora Municipal | Change Station
CLOSE
Current Station
Airport
Location: Flora,
Elevation: 472 ft
Nearby Weather Stations

Elev 472 ft 38.67 °N, 88.45 °W | Updated 15 minutes ago

Partly Cloudy
Partly Cloudy
19 °F
Feels Like 11 °F
N
6
Wind Variable Wind from NW

Today
High -- | Low -- °F
--% Chance of Precip.
Yesterday
High -- | Low -- °F
Precip. -- in
6:25 AM 5:48 PM
Waxing Gibbous, 90% visible
Pressure 30.51 in
Visibility 7.0 miles
Clouds Clear
Windchill 11 °F
Dew Point 17 °F
Humidity 93%
Rainfall 0.00 in
Snow Depth Not available.
UV 0 out of 12
Pollen .60 out of 12
Air Quality Not available.
Flu Activity Not available.
METAR KFOA 020815Z AUTO 31005KT 7SM CLR M07/M08 A3051 RMK AO2 T10711081

More Conditions Fewer Conditions

Pressure 30.51 in
Visibility 7.0 miles
Clouds Clear
Windchill 11 °F
Dew Point 17 °F
Humidity 93%
Rainfall 0.00 in
Snow Depth Not available.
UV 0 out of 12
Pollen .60 out of 12
Air Quality Not available.
Flu Activity Not available.
METAR KFOA 020815Z AUTO 31005KT 7SM CLR M07/M08 A3051 RMK AO2 T10711081

More Conditions Fewer Conditions

10-Day Weather Forecast

Almanac

Astronomy

Mar. 02, 2015 Rise Set
Actual Time
Civil Twilight
Nautical Twilight
Astronomical Twilight
Moon
Length of Visible Light
Length of Day
Tomorrow will be .
, % of the Moon is Illuminated

Today's Extremes

State Highs State Lows

Community

WunderPhotos

Upload Photos

1,801,751 photos uploaded!

WunderBlogs® & News

Nearby

Air Quality

  Air Quality AQ Index Pollutant
Not available.

Snow Depth

Station Depth Elevation

Earthquake Activity

City Distance Mag. Time & Date
Minimum magnitude displayed is 2.5.

Coastal Water Temperatures

Place Temperature

Nearby Weather Stations